San Diego, California
Traffic Map
Current Weather Conditions
San Diego, California
Overcast Light Rain
Overcast
14°
Feels Like: 14°
Wind Chill: 14° Ceiling: 900
Heat Index: 14° Visibility: 4mi
Dew Point: 12° Wind: 24mph
Humidity: 87% Direction: 190° (S)
Pressure: 29.91in Gusts: 32mph
Raw Report DataKSAN 272051Z 19021G28KT 4SM -RA BR OVC009 14/12 A2991 RMK AO2 PK WND 18028/2043 SLP129 P0001 60033 T01440122 58011
Traffic Incident Summary
Active as of:
Severity:
Category:
InformationThere was an issue retrieving the traffic information for this location. Please try a different location or try again shortly.
Advertisements
Track Severe Weather on mobile